Time;durP1;ratioP1;P1;durP2;ratioP2;P2;SDS_P1;SDS_P2;PMS_P1;PMS_P2;Temp;Humidity;BMP_temperature;BMP_pressure;BME280_temperature;BME280_humidity;BME280_pressure;Samples;Min_cycle;Max_cycle;Signal;HPM_P1;HPM_P2
2022/06/08 00:00:50;;;;;;;4.75;3.33;;;;;;;12.01;100.00;90607.78;5072527;28;20044;-72
2022/06/08 00:03:26;;;;;;;5.50;3.72;;;;;;;12.19;100.00;90609.22;5072742;28;20037;-73
2022/06/08 00:05:52;;;;;;;5.22;2.72;;;;;;;12.31;100.00;90616.50;5072699;28;20520;-72
2022/06/08 00:08:18;;;;;;;4.05;2.53;;;;;;;12.32;100.00;90601.28;5072543;28;20041;-72
2022/06/08 00:10:43;;;;;;;4.07;2.85;;;;;;;12.28;100.00;90596.59;5072564;28;20043;-72
2022/06/08 00:13:09;;;;;;;3.70;2.53;;;;;;;12.18;100.00;90601.53;5072575;28;20044;-72
2022/06/08 00:16:21;;;;;;;4.05;3.13;;;;;;;12.22;100.00;90597.91;5072332;28;20514;-72
2022/06/08 00:18:47;;;;;;;4.82;2.50;;;;;;;12.16;100.00;90598.44;5072368;28;20083;-72
2022/06/08 00:21:14;;;;;;;4.97;2.95;;;;;;;12.07;100.00;90593.16;5072355;28;20032;-72
2022/06/08 00:23:40;;;;;;;4.10;2.70;;;;;;;12.05;100.00;90589.25;5071967;28;20439;-72
2022/06/08 00:26:06;;;;;;;5.53;3.30;;;;;;;12.08;100.00;90591.25;5072143;28;20529;-72
2022/06/08 00:28:32;;;;;;;3.08;2.70;;;;;;;12.06;100.00;90585.47;5072566;28;20061;-72
2022/06/08 00:30:59;;;;;;;5.35;2.65;;;;;;;12.10;100.00;90589.81;5071664;28;20494;-72
2022/06/08 00:33:24;;;;;;;3.92;2.85;;;;;;;12.11;100.00;90596.72;5072022;28;20040;-72
2022/06/08 00:35:50;;;;;;;6.97;2.95;;;;;;;12.08;100.00;90584.03;5071173;28;20044;-72
2022/06/08 00:38:16;;;;;;;4.35;2.90;;;;;;;12.05;100.00;90586.59;5071863;28;20052;-72
2022/06/08 00:40:56;;;;;;;3.13;2.40;;;;;;;12.06;100.00;90596.13;5071904;28;20089;-72
2022/06/08 00:43:21;;;;;;;5.10;3.55;;;;;;;11.99;100.00;90588.66;5071850;28;20033;-72
2022/06/08 00:45:48;;;;;;;4.00;3.10;;;;;;;11.86;100.00;90587.81;5071602;28;20052;-72
2022/06/08 00:48:14;;;;;;;6.88;4.00;;;;;;;11.84;100.00;90586.59;5070386;28;20028;-72
2022/06/08 00:50:53;;;;;;;4.43;3.50;;;;;;;11.73;100.00;90585.38;5071739;28;20043;-72
2022/06/08 00:53:25;;;;;;;5.47;4.35;;;;;;;11.70;100.00;90582.25;5071785;28;20033;-72
2022/06/08 00:55:50;;;;;;;4.75;4.05;;;;;;;11.60;100.00;90582.59;5071719;28;20102;-72
2022/06/08 00:58:23;;;;;;;4.78;3.85;;;;;;;11.60;100.00;90579.94;5070371;28;20074;-72
2022/06/08 01:00:50;;;;;;;4.63;3.53;;;;;;;11.59;100.00;90583.72;5071668;28;20502;-72
2022/06/08 01:03:15;;;;;;;5.32;3.55;;;;;;;11.53;100.00;90582.34;5071546;28;20040;-72
2022/06/08 01:05:46;;;;;;;4.35;3.05;;;;;;;11.58;100.00;90584.81;5071573;28;20513;-72
2022/06/08 01:08:35;;;;;;;4.10;3.05;;;;;;;11.67;100.00;90593.53;5071782;28;20037;-72
2022/06/08 01:11:09;;;;;;;3.70;2.88;;;;;;;11.70;100.00;90576.91;5071570;28;20051;-72
2022/06/08 01:13:37;;;;;;;4.13;2.95;;;;;;;11.83;100.00;90574.34;5071470;28;20040;-72
2022/06/08 01:16:08;;;;;;;3.67;2.90;;;;;;;11.86;100.00;90576.38;5071255;28;20037;-72
2022/06/08 01:18:34;;;;;;;4.47;2.80;;;;;;;11.85;100.00;90577.47;5071321;28;20044;-72
2022/06/08 01:21:18;;;;;;;5.10;3.00;;;;;;;11.94;100.00;90578.97;5071311;28;20043;-72
2022/06/08 01:24:11;;;;;;;5.25;3.17;;;;;;;11.92;100.00;90580.41;5071294;28;20111;-72
2022/06/08 01:27:02;;;;;;;3.58;2.22;;;;;;;11.85;100.00;90578.25;5066719;28;20132;-72
2022/06/08 01:29:48;;;;;;;3.63;2.83;;;;;;;11.84;100.00;90578.59;5071327;28;20039;-72
2022/06/08 01:32:23;;;;;;;5.18;3.13;;;;;;;11.84;100.00;90575.94;5071068;28;20044;-71
2022/06/08 01:34:57;;;;;;;3.28;2.55;;;;;;;11.70;100.00;90576.91;5071240;28;20028;-71
2022/06/08 01:37:27;;;;;;;6.45;3.72;;;;;;;11.52;100.00;90564.81;5071138;28;20028;-71
2022/06/08 01:40:17;;;;;;;5.43;3.75;;;;;;;11.46;100.00;90565.28;5071165;28;20037;-71
2022/06/08 01:42:56;;;;;;;4.60;3.45;;;;;;;11.43;100.00;90564.06;5071108;28;20040;-71
2022/06/08 01:45:53;;;;;;;3.85;3.40;;;;;;;11.43;100.00;90561.41;5071104;28;20087;-71
2022/06/08 01:48:46;;;;;;;4.60;3.75;;;;;;;11.43;100.00;90556.06;5075812;28;20060;-71
2022/06/08 01:51:20;;;;;;;4.35;3.42;;;;;;;11.44;100.00;90565.63;5077731;28;20158;-72
2022/06/08 01:54:02;;;;;;;4.47;3.08;;;;;;;11.48;100.00;90563.09;5077714;28;20033;-71
2022/06/08 01:56:42;;;;;;;6.35;3.25;;;;;;;11.51;100.00;90563.22;5077619;28;20033;-72
2022/06/08 01:59:43;;;;;;;4.50;3.25;;;;;;;11.47;100.00;90567.63;5076432;28;20028;-73
2022/06/08 02:02:34;;;;;;;5.85;3.42;;;;;;;11.43;100.00;90556.06;4999323;28;20408;-73
2022/06/08 02:05:16;;;;;;;4.40;3.78;;;;;;;11.33;100.00;90553.78;5185408;23;20136;-69
2022/06/08 02:07:49;;;;;;;4.55;3.25;;;;;;;11.16;100.00;90564.50;5037657;28;20041;-69
2022/06/08 02:10:26;;;;;;;5.97;4.05;;;;;;;11.16;100.00;90556.53;5037589;28;20105;-69
2022/06/08 02:12:58;;;;;;;7.63;4.50;;;;;;;11.17;100.00;90558.84;5037590;28;20029;-69
2022/06/08 02:15:38;;;;;;;4.47;3.55;;;;;;;11.20;100.00;90562.75;5037702;28;20053;-68
2022/06/08 02:18:11;;;;;;;5.22;3.47;;;;;;;11.04;100.00;90554.53;5037580;28;20071;-68
2022/06/08 02:21:06;;;;;;;4.35;3.08;;;;;;;11.08;100.00;90560.81;5037485;28;20558;-68
2022/06/08 02:23:52;;;;;;;5.28;3.13;;;;;;;11.03;100.00;90559.06;5037424;28;20056;-69
2022/06/08 02:26:26;;;;;;;5.47;3.05;;;;;;;11.16;100.00;90559.97;5037273;28;20095;-69
2022/06/08 02:29:05;;;;;;;3.97;3.10;;;;;;;11.25;100.00;90559.94;5037449;28;20034;-68
2022/06/08 02:31:37;;;;;;;4.85;2.85;;;;;;;11.29;100.00;90566.16;5037425;28;20021;-68
2022/06/08 02:34:28;;;;;;;4.03;2.90;;;;;;;11.26;100.00;90561.50;5037462;28;20129;-68
2022/06/08 02:37:18;;;;;;;4.47;2.83;;;;;;;11.27;100.00;90555.06;5037349;28;20033;-68
2022/06/08 02:39:55;;;;;;;3.42;2.50;;;;;;;11.30;100.00;90557.09;5037312;28;20037;-68
2022/06/08 02:42:26;;;;;;;3.72;3.08;;;;;;;11.27;100.00;90537.22;5037327;28;20111;-68
2022/06/08 02:44:57;;;;;;;4.28;3.08;;;;;;;11.33;100.00;90545.78;5037403;28;20088;-68
2022/06/08 02:47:30;;;;;;;4.55;3.05;;;;;;;11.27;100.00;90541.75;5037253;28;20116;-67
2022/06/08 02:50:09;;;;;;;6.05;3.10;;;;;;;11.22;100.00;90550.72;5037305;28;20028;-68
2022/06/08 02:52:36;;;;;;;5.25;3.20;;;;;;;11.19;100.00;90550.56;5029010;28;20060;-68
2022/06/08 02:55:15;;;;;;;4.85;3.20;;;;;;;11.23;100.00;90554.16;5026977;28;20045;-68
2022/06/08 02:57:49;;;;;;;5.65;3.17;;;;;;;11.23;100.00;90551.50;5027673;28;20083;-68
2022/06/08 03:00:21;;;;;;;3.75;3.33;;;;;;;11.18;100.00;90554.31;5023865;28;20061;-68
2022/06/08 03:02:53;;;;;;;4.53;3.17;;;;;;;11.18;100.00;90552.44;5028136;28;20032;-67
2022/06/08 03:05:24;;;;;;;6.88;3.45;;;;;;;11.14;100.00;90554.19;5042587;28;20135;-68
2022/06/08 03:08:06;;;;;;;4.47;3.30;;;;;;;11.16;100.00;90567.94;5053897;28;20032;-68
2022/06/08 03:10:36;;;;;;;4.32;3.35;;;;;;;11.11;100.00;90541.53;5053837;28;20025;-68
2022/06/08 03:13:14;;;;;;;3.53;2.90;;;;;;;11.31;100.00;90548.00;5053813;28;20028;-68
2022/06/08 03:15:41;;;;;;;3.53;3.15;;;;;;;11.49;100.00;90554.00;5053954;28;20452;-68
2022/06/08 03:18:07;;;;;;;5.50;3.13;;;;;;;11.63;100.00;90555.31;5053717;28;20490;-68
2022/06/08 03:20:33;;;;;;;3.83;3.00;;;;;;;11.72;100.00;90554.50;5053824;28;20028;-68
2022/06/08 03:22:58;;;;;;;4.55;3.17;;;;;;;11.79;100.00;90552.09;5053626;28;20049;-68
2022/06/08 03:25:25;;;;;;;6.30;3.47;;;;;;;11.87;100.00;90548.63;5053406;28;20151;-68
2022/06/08 03:27:51;;;;;;;5.70;3.50;;;;;;;12.02;100.00;90558.69;5053515;28;20033;-68
2022/06/08 03:30:17;;;;;;;3.88;3.08;;;;;;;12.21;100.00;90566.22;5053456;28;20082;-68
2022/06/08 03:32:43;;;;;;;3.97;3.08;;;;;;;12.26;100.00;90556.13;5053384;28;20025;-68
2022/06/08 03:35:09;;;;;;;7.65;3.35;;;;;;;12.33;100.00;90552.16;5053489;28;20025;-68
2022/06/08 03:37:35;;;;;;;4.00;2.92;;;;;;;12.46;100.00;90565.19;5053307;28;20036;-68
2022/06/08 03:40:01;;;;;;;4.18;3.08;;;;;;;12.46;100.00;90564.41;5053305;28;20037;-68
2022/06/08 03:42:26;;;;;;;4.30;2.90;;;;;;;12.34;100.00;90553.72;5053232;28;20407;-68
2022/06/08 03:44:52;;;;;;;4.90;2.42;;;;;;;12.36;100.00;90559.50;5053047;28;20410;-68
2022/06/08 03:47:22;;;;;;;4.05;2.60;;;;;;;12.38;100.00;90554.63;5053112;28;20434;-71
2022/06/08 03:49:49;;;;;;;3.67;2.90;;;;;;;12.50;100.00;90573.34;5052908;28;20040;-71
2022/06/08 03:52:22;;;;;;;5.25;2.50;;;;;;;12.80;100.00;90572.09;5052978;28;20029;-70
2022/06/08 03:54:50;;;;;;;;;;;;;;;13.07;100.00;90573.38;5053337;28;20029;-70
2022/06/08 03:57:16;;;;;;;4.20;2.85;;;;;;;13.15;100.00;90569.03;5052981;28;19966;-71
2022/06/08 03:59:45;;;;;;;4.70;3.35;;;;;;;13.36;100.00;90567.09;5052984;28;20028;-71
2022/06/08 04:02:11;;;;;;;5.90;4.00;;;;;;;13.46;100.00;90568.53;5052822;28;20025;-70
2022/06/08 04:04:37;;;;;;;5.03;3.20;;;;;;;13.51;100.00;90564.84;5052146;28;20048;-70
2022/06/08 04:07:04;;;;;;;5.82;3.90;;;;;;;13.73;100.00;90567.88;5046503;28;20095;-70
2022/06/08 04:09:30;;;;;;;4.15;3.10;;;;;;;13.94;100.00;90562.38;5041872;28;20059;-70
2022/06/08 04:11:55;;;;;;;3.92;2.85;;;;;;;14.22;100.00;90556.28;5051628;28;20033;-70
2022/06/08 04:14:21;;;;;;;4.30;2.90;;;;;;;14.47;100.00;90560.44;5052431;28;20025;-70
2022/06/08 04:16:47;;;;;;;6.97;3.22;;;;;;;14.63;100.00;90561.28;5052519;28;20098;-70
2022/06/08 04:19:14;;;;;;;5.63;3.40;;;;;;;14.63;100.00;90561.28;5052512;28;20052;-70
2022/06/08 04:21:41;;;;;;;5.43;3.40;;;;;;;14.59;100.00;90556.97;5052471;28;20029;-70
2022/06/08 04:24:08;;;;;;;3.58;3.03;;;;;;;14.69;100.00;90559.16;5052204;28;20064;-71
2022/06/08 04:26:33;;;;;;;3.88;3.05;;;;;;;14.71;100.00;90564.16;5052333;28;20029;-71
2022/06/08 04:28:59;;;;;;;4.43;3.35;;;;;;;14.89;100.00;90563.50;5052327;28;20051;-71
2022/06/08 04:31:24;;;;;;;6.85;3.35;;;;;;;15.04;100.00;90570.00;5034353;28;20021;-71
2022/06/08 04:33:53;;;;;;;4.95;3.53;;;;;;;15.26;100.00;90561.38;5052252;28;20045;-71
2022/06/08 04:36:19;;;;;;;3.28;2.97;;;;;;;15.58;100.00;90561.38;5052004;28;20025;-71
2022/06/08 04:38:45;;;;;;;4.05;2.83;;;;;;;15.84;100.00;90553.59;5052122;28;20111;-72
2022/06/08 04:41:11;;;;;;;4.30;3.20;;;;;;;15.79;100.00;90551.19;5052099;28;20032;-72
2022/06/08 04:43:37;;;;;;;4.97;3.45;;;;;;;15.80;100.00;90546.59;5051909;28;20021;-72
2022/06/08 04:46:03;;;;;;;5.80;4.10;;;;;;;15.82;100.00;90544.34;5051912;28;20060;-72
2022/06/08 04:48:29;;;;;;;8.63;4.05;;;;;;;15.59;100.00;90552.22;5052163;28;20581;-72
2022/06/08 04:50:54;;;;;;;4.35;3.28;;;;;;;15.62;100.00;90561.47;5051871;28;20071;-74
2022/06/08 04:53:20;;;;;;;3.72;3.00;;;;;;;15.53;100.00;90551.69;5051825;28;20524;-72
2022/06/08 04:55:46;;;;;;;3.70;2.75;;;;;;;15.55;100.00;90540.63;5051678;28;20108;-72
2022/06/08 04:58:11;;;;;;;3.83;3.05;;;;;;;15.44;100.00;90534.22;5051715;28;20051;-73
2022/06/08 05:00:37;;;;;;;4.40;2.75;;;;;;;15.46;100.00;90535.47;5052003;28;20406;-73
2022/06/08 05:03:02;;;;;;;4.30;2.90;;;;;;;15.59;100.00;90541.50;5051703;28;20056;-73
2022/06/08 05:05:38;;;;;;;2.83;2.50;;;;;;;15.46;100.00;90542.69;5033410;28;20469;-73
2022/06/08 05:08:04;;;;;;;2.97;2.70;;;;;;;15.44;100.00;90539.59;5051550;28;20032;-73
2022/06/08 05:10:32;;;;;;;4.18;2.90;;;;;;;15.70;100.00;90547.91;5051553;28;20031;-73
2022/06/08 05:12:58;;;;;;;3.17;2.80;;;;;;;15.74;100.00;90538.03;5051471;28;20104;-72
2022/06/08 05:15:29;;;;;;;2.83;2.47;;;;;;;15.93;100.00;90544.56;5051408;28;20056;-72
2022/06/08 05:17:57;;;;;;;3.80;2.88;;;;;;;15.97;100.00;90545.44;5051466;28;20577;-73
2022/06/08 05:20:24;;;;;;;4.07;3.30;;;;;;;16.07;100.00;90540.28;5051343;28;20025;-73
2022/06/08 05:22:50;;;;;;;7.20;3.80;;;;;;;16.09;100.00;90550.66;5047520;28;20541;-73
2022/06/08 05:25:23;;;;;;;3.20;2.90;;;;;;;16.10;100.00;90550.34;5040995;28;20033;-73
2022/06/08 05:27:48;;;;;;;9.32;3.65;;;;;;;16.38;100.00;90552.81;5050900;28;20025;-72
2022/06/08 05:30:14;;;;;;;5.15;3.03;;;;;;;16.68;100.00;90553.06;5051193;28;20040;-72
2022/06/08 05:32:40;;;;;;;4.32;3.15;;;;;;;16.72;100.00;90558.50;5045096;28;20037;-73
2022/06/08 05:35:06;;;;;;;7.57;3.75;;;;;;;17.00;100.00;90556.34;5051069;28;20119;-71
2022/06/08 05:37:31;;;;;;;6.32;3.60;;;;;;;17.02;100.00;90562.13;5050711;28;20029;-73
2022/06/08 05:39:57;;;;;;;4.60;3.50;;;;;;;17.19;100.00;90568.19;5042053;28;20100;-73
2022/06/08 05:42:23;;;;;;;8.13;3.58;;;;;;;17.60;100.00;90553.16;5038795;28;20108;-72
2022/06/08 05:44:49;;;;;;;5.93;3.80;;;;;;;18.87;100.00;90553.41;5030855;28;20056;-72
2022/06/08 05:47:16;;;;;;;3.63;2.95;;;;;;;22.26;84.41;90562.28;5031253;28;20490;-70
2022/06/08 05:49:42;;;;;;;4.43;3.58;;;;;;;23.57;71.54;90555.69;5031203;28;20108;-71
2022/06/08 05:52:09;;;;;;;6.82;3.97;;;;;;;25.62;62.14;90558.81;5015898;28;20506;-73
2022/06/08 05:54:35;;;;;;;4.53;3.45;;;;;;;26.61;57.53;90559.31;5041347;28;20032;-72
2022/06/08 05:57:01;;;;;;;2.83;2.53;;;;;;;26.90;54.33;90565.03;5040176;28;20056;-73
2022/06/08 05:59:26;;;;;;;3.30;2.90;;;;;;;28.69;50.74;90556.56;5032003;28;20029;-73
2022/06/08 06:01:52;;;;;;;3.58;2.70;;;;;;;28.23;49.88;90558.44;5031031;28;20029;-71
2022/06/08 06:04:18;;;;;;;3.97;3.10;;;;;;;28.91;49.39;90561.13;5030662;28;20498;-73
2022/06/08 06:06:45;;;;;;;3.00;2.58;;;;;;;30.73;45.55;90561.38;5031698;28;20090;-73
2022/06/08 06:09:14;;;;;;;3.85;2.60;;;;;;;31.41;43.30;90557.16;5037780;28;20034;-73
2022/06/08 06:11:39;;;;;;;3.42;3.13;;;;;;;32.82;40.73;90559.75;5031021;28;20494;-73
2022/06/08 06:14:05;;;;;;;2.78;2.40;;;;;;;32.04;39.61;90561.56;5030844;28;20052;-73
2022/06/08 06:16:31;;;;;;;2.28;2.08;;;;;;;33.58;39.35;90558.94;5030949;28;20523;-73
2022/06/08 06:18:57;;;;;;;2.35;2.15;;;;;;;32.19;39.85;90559.00;5030950;28;20052;-73
2022/06/08 06:21:25;;;;;;;2.85;2.38;;;;;;;31.83;40.31;90563.09;5030951;28;20495;-73
2022/06/08 06:23:55;;;;;;;2.13;1.95;;;;;;;30.82;40.44;90560.72;5030726;28;20618;-73
2022/06/08 06:26:21;;;;;;;2.72;2.30;;;;;;;32.38;40.43;90560.66;5030822;28;20037;-72
2022/06/08 06:28:47;;;;;;;4.10;2.58;;;;;;;33.74;38.36;90553.09;5032411;28;20029;-73
2022/06/08 06:31:20;;;;;;;4.82;3.45;;;;;;;33.53;37.61;90552.03;5043781;28;20036;-72
2022/06/08 06:33:46;;;;;;;3.38;2.63;;;;;;;33.70;36.33;90549.72;5012877;28;20025;-73
2022/06/08 06:36:12;;;;;;;2.85;2.40;;;;;;;32.54;39.00;90545.88;5039757;28;20131;-72
2022/06/08 06:38:37;;;;;;;3.85;2.20;;;;;;;31.40;40.66;90546.56;5044761;28;20028;-69
2022/06/08 06:41:03;;;;;;;2.22;2.03;;;;;;;31.84;41.50;90539.88;5043090;28;20394;-68
2022/06/08 06:43:29;;;;;;;2.65;2.35;;;;;;;33.36;38.60;90548.06;5040977;28;20030;-68
2022/06/08 06:45:54;;;;;;;1.83;1.73;;;;;;;34.13;35.27;90548.59;5034255;28;20033;-69
2022/06/08 06:48:20;;;;;;;3.95;1.88;;;;;;;34.97;34.59;90547.06;5041906;28;20028;-67
2022/06/08 06:50:46;;;;;;;1.85;1.75;;;;;;;34.18;33.70;90545.22;5043483;28;20514;-67
2022/06/08 06:53:13;;;;;;;2.67;1.75;;;;;;;36.00;32.45;90547.41;5042801;28;20060;-67
2022/06/08 06:55:39;;;;;;;7.70;2.28;;;;;;;36.86;32.37;90538.00;5044700;28;20032;-68
2022/06/08 06:58:06;;;;;;;3.25;2.55;;;;;;;36.76;31.12;90540.06;5043226;28;20072;-67
2022/06/08 07:00:31;;;;;;;2.75;1.80;;;;;;;35.59;31.50;90546.34;5042594;28;20075;-68
2022/06/08 07:02:57;;;;;;;2.03;1.80;;;;;;;35.02;32.28;90543.66;5044482;28;20021;-68
2022/06/08 07:05:25;;;;;;;2.45;1.98;;;;;;;34.42;34.24;90534.28;5024693;28;20439;-68
2022/06/08 07:07:51;;;;;;;2.35;2.15;;;;;;;35.44;33.25;90535.25;5045018;28;20499;-68
2022/06/08 07:10:18;;;;;;;2.30;1.98;;;;;;;36.85;30.05;90530.91;5053709;28;20057;-68
2022/06/08 07:12:44;;;;;;;2.50;1.80;;;;;;;37.29;29.92;90536.34;5050786;28;20065;-68
2022/06/08 07:15:19;;;;;;;2.90;2.45;;;;;;;37.89;29.44;90542.34;5044214;28;20025;-69
2022/06/08 07:17:45;;;;;;;2.67;2.10;;;;;;;37.04;30.43;90540.50;5043949;28;20021;-68
2022/06/08 07:20:12;;;;;;;1.90;1.80;;;;;;;38.13;29.77;90531.72;5044017;28;20395;-68
2022/06/08 07:22:39;;;;;;;2.80;1.98;;;;;;;37.57;29.08;90533.91;5042969;28;20026;-66
2022/06/08 07:25:06;;;;;;;2.20;2.00;;;;;;;38.26;29.46;90529.34;5039391;28;20037;-67
2022/06/08 07:27:32;;;;;;;1.65;1.55;;;;;;;36.95;30.73;90524.00;5033555;28;20033;-69
2022/06/08 07:29:57;;;;;;;1.50;1.40;;;;;;;36.68;27.84;90527.13;5029885;28;20048;-72
2022/06/08 07:32:23;;;;;;;1.60;1.50;;;;;;;36.42;28.69;90533.25;5032940;28;20144;-73
2022/06/08 07:34:48;;;;;;;1.63;1.52;;;;;;;36.87;27.45;90534.72;5033283;28;20024;-73
2022/06/08 07:37:14;;;;;;;1.50;1.40;;;;;;;37.63;27.67;90540.28;5033460;28;20041;-73
2022/06/08 07:39:40;;;;;;;1.75;1.63;;;;;;;36.12;29.37;90537.25;5033210;28;20014;-72
2022/06/08 07:42:06;;;;;;;1.70;1.60;;;;;;;35.39;32.21;90539.44;5033249;28;20029;-71
2022/06/08 07:44:32;;;;;;;2.10;1.98;;;;;;;35.21;29.77;90539.56;5032409;28;20025;-66
2022/06/08 07:46:57;;;;;;;2.75;2.05;;;;;;;32.73;33.66;90528.19;5032678;28;20071;-70
2022/06/08 07:49:40;;;;;;;2.50;1.83;;;;;;;31.70;34.27;90520.34;5050187;28;20109;-69
2022/06/08 07:52:11;;;;;;;2.10;1.83;;;;;;;31.88;35.06;90518.53;5052959;28;20025;-69
2022/06/08 07:54:38;;;;;;;1.58;1.48;;;;;;;31.63;34.10;90532.38;5052501;28;20043;-71
2022/06/08 07:57:05;;;;;;;2.85;2.13;;;;;;;32.44;33.88;90525.81;5052694;28;20430;-71
2022/06/08 07:59:33;;;;;;;2.00;1.70;;;;;;;36.53;29.13;90532.69;5052345;28;20055;-72
2022/06/08 08:02:00;;;;;;;2.10;1.90;;;;;;;35.51;30.90;90542.44;5055086;28;20095;-72
2022/06/08 08:04:26;;;;;;;2.50;2.30;;;;;;;35.01;31.96;90534.59;5052368;28;20057;-72
2022/06/08 08:06:52;;;;;;;2.50;2.30;;;;;;;36.68;32.65;90532.66;5052308;28;20490;-71
2022/06/08 08:09:18;;;;;;;2.30;2.10;;;;;;;37.96;29.48;90525.25;5052425;28;20033;-70
2022/06/08 08:11:49;;;;;;;2.20;2.00;;;;;;;35.34;33.08;90531.75;5052097;28;20494;-70
2022/06/08 08:14:16;;;;;;;4.38;2.97;;;;;;;35.27;32.48;90536.88;5051977;28;20083;-71
2022/06/08 08:16:45;;;;;;;2.03;1.77;;;;;;;36.29;30.58;90530.00;5052416;28;20033;-69
2022/06/08 08:19:12;;;;;;;1.95;1.77;;;;;;;38.49;27.63;90524.72;5052395;28;20418;-72
2022/06/08 08:21:38;;;;;;;1.80;1.70;;;;;;;36.16;30.10;90527.53;5052375;28;20021;-72
2022/06/08 08:24:05;;;;;;;1.80;1.63;;;;;;;34.93;32.34;90525.13;5052102;28;20091;-70
2022/06/08 08:26:30;;;;;;;1.77;1.67;;;;;;;34.04;33.00;90521.00;5052110;28;20071;-72
2022/06/08 08:28:57;;;;;;;1.80;1.70;;;;;;;32.41;34.91;90523.97;5051740;28;20060;-73
2022/06/08 08:31:23;;;;;;;1.67;1.48;;;;;;;30.89;34.28;90522.00;5051865;28;20025;-71
2022/06/08 08:33:48;;;;;;;1.80;1.70;;;;;;;31.44;35.13;90522.50;5052021;28;20443;-74
2022/06/08 08:36:14;;;;;;;1.63;1.45;;;;;;;34.84;31.03;90533.44;5052015;28;20514;-73
2022/06/08 08:38:39;;;;;;;1.42;1.33;;;;;;;35.62;30.85;90523.25;5052169;28;20033;-72
2022/06/08 08:42:20;;;;;;;2.10;1.60;;;;;;;36.92;28.38;90516.63;5051820;28;20021;-73
2022/06/08 08:43:51;;;;;;;2.78;2.25;;;;;;;38.52;28.39;90514.66;5051144;28;20036;-72
2022/06/08 08:46:28;;;;;;;2.00;1.80;;;;;;;39.65;26.38;90523.22;5051881;28;20035;-71
2022/06/08 08:49:05;;;;;;;1.52;1.42;;;;;;;41.02;24.89;90521.66;5051833;28;20025;-72
2022/06/08 08:51:42;;;;;;;9.93;6.55;;;;;;;38.44;27.61;90514.34;5051402;28;20112;-68
2022/06/08 08:54:14;;;;;;;1.40;1.30;;;;;;;37.30;29.03;90509.34;5051637;28;20495;-69
2022/06/08 08:56:40;;;;;;;1.40;1.30;;;;;;;33.28;32.68;90502.69;5051061;28;20486;-69
2022/06/08 08:59:17;;;;;;;3.92;2.75;;;;;;;32.78;32.94;90505.53;5053382;28;20047;-66
2022/06/08 09:01:46;;;;;;;2.03;1.70;;;;;;;31.31;33.75;90497.81;5055952;28;20060;-68
2022/06/08 09:04:21;;;;;;;2.10;1.90;;;;;;;31.79;34.72;90496.44;5051447;28;20033;-68
2022/06/08 09:06:46;;;;;;;1.90;1.70;;;;;;;35.75;30.59;90509.16;5051538;28;20082;-69
2022/06/08 09:09:34;;;;;;;1.67;1.58;;;;;;;39.78;26.42;90503.28;5051446;28;20032;-69
2022/06/08 09:11:59;;;;;;;2.25;2.00;;;;;;;40.94;26.66;90496.31;5051403;28;20029;-70
2022/06/08 09:14:58;;;;;;;2.10;1.80;;;;;;;38.94;27.41;90481.34;5050740;28;20039;-68
2022/06/08 09:17:34;;;;;;;3.33;1.42;;;;;;;34.75;30.57;90486.53;5051151;28;20743;-67
2022/06/08 09:20:21;;;;;;;1.50;1.40;;;;;;;35.01;32.15;90495.13;5051199;28;20055;-68
2022/06/08 09:22:52;;;;;;;3.25;1.90;;;;;;;35.92;33.36;90488.09;5050929;28;20033;-68
2022/06/08 09:25:26;;;;;;;2.17;1.75;;;;;;;36.37;31.74;90497.16;5050894;28;20025;-68
2022/06/08 09:27:55;;;;;;;2.78;2.00;;;;;;;35.54;32.75;90486.16;5049986;28;20017;-69
2022/06/08 09:30:27;;;;;;;3.78;3.35;;;;;;;36.85;30.92;90486.56;5048676;28;20033;-68
2022/06/08 09:33:14;;;;;;;16.95;9.68;;;;;;;37.60;27.72;90487.75;5051212;28;20033;-67
2022/06/08 09:35:59;;;;;;;1.80;1.70;;;;;;;36.05;30.82;90479.50;5051055;28;20129;-68
2022/06/08 09:38:28;;;;;;;1.95;1.67;;;;;;;36.27;32.13;90474.31;5050863;28;20498;-69
2022/06/08 09:41:11;;;;;;;2.03;1.70;;;;;;;36.12;33.02;90477.09;5050928;28;20456;-68
2022/06/08 09:43:43;;;;;;;1.83;1.60;;;;;;;37.97;29.53;90485.13;5050258;28;20069;-68
2022/06/08 09:46:11;;;;;;;1.85;1.75;;;;;;;39.17;28.37;90484.28;5047515;28;20036;-68
2022/06/08 09:51:36;;;;;;;2.30;1.70;;;;;;;36.63;30.37;90477.91;5051196;28;20414;-68
2022/06/08 09:54:06;;;;;;;1.80;1.70;;;;;;;37.65;30.90;90473.16;5050689;28;20029;-68
2022/06/08 09:57:09;;;;;;;1.70;1.60;;;;;;;38.08;30.12;90470.56;5051051;28;20037;-68
2022/06/08 09:59:55;;;;;;;2.45;1.73;;;;;;;35.61;32.49;90458.09;5045715;28;20115;-68
2022/06/08 10:02:29;;;;;;;1.63;1.52;;;;;;;35.57;32.94;90461.03;5047788;28;20111;-68
2022/06/08 10:05:16;;;;;;;2.05;1.88;;;;;;;36.28;33.42;90456.44;5044167;28;20053;-69
2022/06/08 10:08:03;;;;;;;2.15;1.95;;;;;;;35.86;33.91;90456.78;5041564;28;20505;-68
2022/06/08 10:10:38;;;;;;;2.10;1.90;;;;;;;35.38;33.24;90452.16;5045431;28;20068;-68
2022/06/08 10:13:18;;;;;;;2.17;1.80;;;;;;;34.94;34.67;90459.56;5049779;28;20029;-69
2022/06/08 10:16:01;;;;;;;1.80;1.70;;;;;;;34.82;35.27;90453.75;5054775;28;20540;-69
2022/06/08 10:18:28;;;;;;;1.80;1.70;;;;;;;34.02;33.68;90451.72;5054760;28;20036;-70
2022/06/08 10:21:09;;;;;;;2.05;1.60;;;;;;;34.10;35.57;90452.91;5054632;28;20041;-69
2022/06/08 10:23:47;;;;;;;2.13;1.90;;;;;;;33.25;34.75;90445.72;5054563;28;20062;-70
2022/06/08 10:26:47;;;;;;;7.78;2.00;;;;;;;33.25;35.84;90446.47;5054672;28;20033;-69
2022/06/08 10:29:26;;;;;;;1.95;1.85;;;;;;;35.03;37.89;90442.88;5028298;28;20033;-69
2022/06/08 10:32:10;;;;;;;1.70;1.60;;;;;;;36.94;31.10;90444.09;5054571;28;20083;-69
2022/06/08 10:34:36;;;;;;;3.20;2.22;;;;;;;34.45;34.77;90446.94;5053844;28;20035;-69
2022/06/08 10:37:11;;;;;;;3.10;1.90;;;;;;;33.70;37.40;90446.88;5036604;28;20119;-69
2022/06/08 10:39:39;;;;;;;2.13;1.92;;;;;;;34.88;34.88;90444.88;5054353;28;20414;-69
2022/06/08 10:45:02;;;;;;;1.50;1.40;;;;;;;35.37;35.50;90425.75;5054295;28;20036;-68
2022/06/08 10:47:33;;;;;;;2.80;2.30;;;;;;;36.00;34.09;90418.03;5054248;28;20418;-68
2022/06/08 10:50:01;;;;;;;2.83;2.47;;;;;;;34.71;35.46;90422.34;5054223;28;20029;-69
2022/06/08 10:52:40;;;;;;;1.80;1.70;;;;;;;34.14;36.40;90417.63;5053993;28;20064;-69
2022/06/08 10:55:17;;;;;;;1.85;1.75;;;;;;;34.46;35.08;90423.63;5053985;28;20040;-69
2022/06/08 10:57:52;;;;;;;2.75;2.33;;;;;;;35.37;36.31;90430.50;5054111;28;20025;-67
2022/06/08 11:00:18;;;;;;;2.95;1.65;;;;;;;35.32;35.00;90418.06;5054274;28;20040;-70
2022/06/08 11:02:45;;;;;;;2.17;1.98;;;;;;;33.11;37.63;90416.78;5054059;28;20112;-70
2022/06/08 11:05:28;;;;;;;2.25;1.90;;;;;;;33.40;38.83;90415.53;5053605;28;20187;-69
2022/06/08 11:08:04;;;;;;;;;;;;;;;33.04;37.44;90414.34;5050527;28;20037;-70
2022/06/08 11:10:44;;;;;;;1.35;1.25;;;;;;;32.07;38.61;90423.06;5033331;28;19921;-72
2022/06/08 11:13:24;;;;;;;2.53;1.83;;;;;;;32.31;39.55;90417.78;5033280;28;20522;-74
2022/06/08 11:15:53;;;;;;;2.25;2.05;;;;;;;33.08;37.62;90417.69;5033634;28;20029;-72
2022/06/08 11:18:55;;;;;;;2.03;1.83;;;;;;;31.13;40.59;90410.47;5033609;28;20037;-71
2022/06/08 11:21:34;;;;;;;2.35;2.15;;;;;;;29.56;44.17;90409.44;5032667;28;20018;-70
2022/06/08 11:24:11;;;;;;;2.00;1.90;;;;;;;31.29;40.59;90399.31;5033350;28;20497;-69
2022/06/08 11:26:36;;;;;;;3.47;1.95;;;;;;;32.03;39.24;90405.13;5033452;28;20025;-71
2022/06/08 11:29:25;;;;;;;1.70;1.60;;;;;;;30.19;41.33;90399.63;5033037;28;20411;-71
2022/06/08 11:31:56;;;;;;;2.35;2.15;;;;;;;30.50;42.52;90386.81;4975694;28;20033;-72
2022/06/08 11:34:21;;;;;;;2.00;1.80;;;;;;;31.85;41.23;90379.09;5033297;28;20030;-71
2022/06/08 11:37:08;;;;;;;2.10;1.90;;;;;;;32.33;39.17;90385.03;5033263;28;20045;-70
2022/06/08 11:39:43;;;;;;;1.70;1.60;;;;;;;29.96;41.92;90382.28;5015532;28;20030;-70
2022/06/08 11:42:14;;;;;;;2.13;1.92;;;;;;;29.01;45.90;90369.56;5033101;28;20028;-69
2022/06/08 11:45:05;;;;;;;2.03;1.83;;;;;;;28.06;46.41;90374.44;5014624;28;20025;-71
2022/06/08 11:47:48;;;;;;;1.88;1.67;;;;;;;30.11;45.00;90368.91;5033308;28;20033;-67
2022/06/08 11:50:23;;;;;;;2.10;1.90;;;;;;;30.94;41.47;90357.41;5033202;28;20063;-68
2022/06/08 11:53:14;;;;;;;2.08;1.85;;;;;;;31.41;40.15;90359.22;5033163;28;20463;-68
2022/06/08 11:56:05;;;;;;;2.35;1.92;;;;;;;32.29;39.39;90376.19;5033362;28;20033;-68